<?xml version="1.0" encoding="UTF-8" standalone="no" ?>
<gpx xmlns="http://www.topografix.com/GPX/1/1" xmlns:xsi="http://www.w3.org/2001/XMLSchema-instance" xsi:schemaLocation="http://www.topografix.com/GPX/1/1 http://www.topografix.com/GPX/1/1/gpx.xsd" version="1.1" creator="VisuGPX - https://www.visugpx.com">
  <metadata>
    <name>Vacances 2021</name>
  </metadata>
  <trk>
    <name><![CDATA[Journal actif: 2021-08-02 14:41]]></name>
    <trkseg>
      <trkpt lat="47.09249" lon="-1.00694">
        <ele>102.04</ele>
        <time>2021-08-02T16:41:02Z</time>
      </trkpt>
      <trkpt lat="47.09261" lon="-1.00706">
        <ele>101.56</ele>
        <time>2021-08-02T16:41:03Z</time>
      </trkpt>
      <trkpt lat="47.09267" lon="-1.00704">
        <ele>101.56</ele>
        <time>2021-08-02T16:41:04Z</time>
      </trkpt>
      <trkpt lat="47.09369" lon="-1.00679">
        <ele>101.08</ele>
        <time>2021-08-02T16:41:15Z</time>
      </trkpt>
      <trkpt lat="47.09402" lon="-1.00668">
        <ele>100.6</ele>
        <time>2021-08-02T16:41:19Z</time>
      </trkpt>
      <trkpt lat="47.09407" lon="-1.00662">
        <ele>100.6</ele>
        <time>2021-08-02T16:41:20Z</time>
      </trkpt>
      <trkpt lat="47.09411" lon="-1.00656">
        <ele>100.6</ele>
        <time>2021-08-02T16:41:21Z</time>
      </trkpt>
      <trkpt lat="47.09416" lon="-1.00651">
        <ele>100.6</ele>
        <time>2021-08-02T16:41:22Z</time>
      </trkpt>
      <trkpt lat="47.09419" lon="-1.00646">
        <ele>100.6</ele>
        <time>2021-08-02T16:41:23Z</time>
      </trkpt>
      <trkpt lat="47.09422" lon="-1.00635">
        <ele>100.6</ele>
        <time>2021-08-02T16:41:24Z</time>
      </trkpt>
      <trkpt lat="47.09427" lon="-1.00629">
        <ele>100.6</ele>
        <time>2021-08-02T16:41:25Z</time>
      </trkpt>
      <trkpt lat="47.09434" lon="-1.00624">
        <ele>100.11</ele>
        <time>2021-08-02T16:41:26Z</time>
      </trkpt>
      <trkpt lat="47.09448" lon="-1.00625">
        <ele>100.11</ele>
        <time>2021-08-02T16:41:27Z</time>
      </trkpt>
      <trkpt lat="47.09453" lon="-1.00628">
        <ele>100.11</ele>
        <time>2021-08-02T16:41:28Z</time>
      </trkpt>
      <trkpt lat="47.09465" lon="-1.00638">
        <ele>100.11</ele>
        <time>2021-08-02T16:41:29Z</time>
      </trkpt>
      <trkpt lat="47.09465" lon="-1.00638">
        <ele>99.63</ele>
        <time>2021-08-02T16:41:30Z</time>
      </trkpt>
      <trkpt lat="47.09472" lon="-1.00635">
        <ele>100.11</ele>
        <time>2021-08-02T16:41:31Z</time>
      </trkpt>
      <trkpt lat="47.09481" lon="-1.00632">
        <ele>100.11</ele>
        <time>2021-08-02T16:41:32Z</time>
      </trkpt>
      <trkpt lat="47.09489" lon="-1.00628">
        <ele>100.11</ele>
        <time>2021-08-02T16:41:33Z</time>
      </trkpt>
      <trkpt lat="47.09619" lon="-1.00545">
        <ele>100.11</ele>
        <time>2021-08-02T16:41:46Z</time>
      </trkpt>
      <trkpt lat="47.09652" lon="-1.00521">
        <ele>100.11</ele>
        <time>2021-08-02T16:41:50Z</time>
      </trkpt>
      <trkpt lat="47.09658" lon="-1.00517">
        <ele>100.11</ele>
        <time>2021-08-02T16:41:51Z</time>
      </trkpt>
      <trkpt lat="47.09663" lon="-1.00514">
        <ele>100.6</ele>
        <time>2021-08-02T16:41:52Z</time>
      </trkpt>
      <trkpt lat="47.09665" lon="-1.00506">
        <ele>100.6</ele>
        <time>2021-08-02T16:41:53Z</time>
      </trkpt>
      <trkpt lat="47.09665" lon="-1.00499">
        <ele>100.6</ele>
        <time>2021-08-02T16:41:54Z</time>
      </trkpt>
      <trkpt lat="47.09665" lon="-1.00495">
        <ele>100.6</ele>
        <time>2021-08-02T16:41:55Z</time>
      </trkpt>
      <trkpt lat="47.09665" lon="-1.00495">
        <ele>100.6</ele>
        <time>2021-08-02T16:41:56Z</time>
      </trkpt>
      <trkpt lat="47.09666" lon="-1.00475">
        <ele>100.6</ele>
        <time>2021-08-02T16:41:57Z</time>
      </trkpt>
      <trkpt lat="47.09663" lon="-1.00471">
        <ele>100.6</ele>
        <time>2021-08-02T16:41:58Z</time>
      </trkpt>
      <trkpt lat="47.09659" lon="-1.00467">
        <ele>100.6</ele>
        <time>2021-08-02T16:41:59Z</time>
      </trkpt>
      <trkpt lat="47.09656" lon="-1.00463">
        <ele>100.11</ele>
        <time>2021-08-02T16:42:00Z</time>
      </trkpt>
      <trkpt lat="47.09652" lon="-1.00459">
        <ele>100.11</ele>
        <time>2021-08-02T16:42:01Z</time>
      </trkpt>
      <trkpt lat="47.09648" lon="-1.00454">
        <ele>99.63</ele>
        <time>2021-08-02T16:42:02Z</time>
      </trkpt>
      <trkpt lat="47.09645" lon="-1.0045">
        <ele>99.63</ele>
        <time>2021-08-02T16:42:03Z</time>
      </trkpt>
      <trkpt lat="47.09642" lon="-1.00447">
        <ele>99.63</ele>
        <time>2021-08-02T16:42:04Z</time>
      </trkpt>
      <trkpt lat="47.09636" lon="-1.00443">
        <ele>99.63</ele>
        <time>2021-08-02T16:42:05Z</time>
      </trkpt>
      <trkpt lat="47.09633" lon="-1.00445">
        <ele>99.15</ele>
        <time>2021-08-02T16:42:06Z</time>
      </trkpt>
      <trkpt lat="47.0963" lon="-1.00448">
        <ele>99.15</ele>
        <time>2021-08-02T16:42:07Z</time>
      </trkpt>
      <trkpt lat="47.09627" lon="-1.00452">
        <ele>99.15</ele>
        <time>2021-08-02T16:42:08Z</time>
      </trkpt>
      <trkpt lat="47.09623" lon="-1.00457">
        <ele>99.63</ele>
        <time>2021-08-02T16:42:09Z</time>
      </trkpt>
      <trkpt lat="47.09592" lon="-1.00489">
        <ele>101.08</ele>
        <time>2021-08-02T16:42:19Z</time>
      </trkpt>
      <trkpt lat="47.09587" lon="-1.00482">
        <ele>101.08</ele>
        <time>2021-08-02T16:42:26Z</time>
      </trkpt>
      <trkpt lat="47.09586" lon="-1.0048">
        <ele>101.08</ele>
        <time>2021-08-02T16:42:27Z</time>
      </trkpt>
      <trkpt lat="47.09584" lon="-1.00492">
        <ele>101.08</ele>
        <time>2021-08-02T16:42:28Z</time>
      </trkpt>
      <trkpt lat="47.09581" lon="-1.00494">
        <ele>101.56</ele>
        <time>2021-08-02T16:42:29Z</time>
      </trkpt>
      <trkpt lat="47.09578" lon="-1.00495">
        <ele>101.56</ele>
        <time>2021-08-02T16:42:30Z</time>
      </trkpt>
      <trkpt lat="47.09563" lon="-1.00503">
        <ele>102.52</ele>
        <time>2021-08-02T16:42:35Z</time>
      </trkpt>
      <trkpt lat="47.09561" lon="-1.00502">
        <ele>102.52</ele>
        <time>2021-08-02T16:42:36Z</time>
      </trkpt>
      <trkpt lat="47.09558" lon="-1.00498">
        <ele>102.52</ele>
        <time>2021-08-02T16:42:37Z</time>
      </trkpt>
      <trkpt lat="47.09542" lon="-1.00479">
        <ele>102.04</ele>
        <time>2021-08-02T16:42:44Z</time>
      </trkpt>
      <trkpt lat="47.09542" lon="-1.00478">
        <ele>102.04</ele>
        <time>2021-08-02T16:42:45Z</time>
      </trkpt>
      <trkpt lat="47.0954" lon="-1.00466">
        <ele>102.04</ele>
        <time>2021-08-02T16:42:46Z</time>
      </trkpt>
      <trkpt lat="47.0954" lon="-1.00466">
        <ele>102.04</ele>
        <time>2021-08-02T16:42:47Z</time>
      </trkpt>
      <trkpt lat="47.09541" lon="-1.00465">
        <ele>102.52</ele>
        <time>2021-08-02T16:42:58Z</time>
      </trkpt>
      <trkpt lat="47.09543" lon="-1.00463">
        <ele>102.52</ele>
        <time>2021-08-02T16:42:59Z</time>
      </trkpt>
      <trkpt lat="47.09543" lon="-1.00479">
        <ele>102.52</ele>
        <time>2021-08-02T16:43:00Z</time>
      </trkpt>
      <trkpt lat="47.09545" lon="-1.00482">
        <ele>102.52</ele>
        <time>2021-08-02T16:43:01Z</time>
      </trkpt>
      <trkpt lat="47.09547" lon="-1.00484">
        <ele>103</ele>
        <time>2021-08-02T16:43:02Z</time>
      </trkpt>
      <trkpt lat="47.09549" lon="-1.00487">
        <ele>103</ele>
        <time>2021-08-02T16:43:03Z</time>
      </trkpt>
      <trkpt lat="47.0955" lon="-1.00489">
        <ele>103</ele>
        <time>2021-08-02T16:43:04Z</time>
      </trkpt>
      <trkpt lat="47.09553" lon="-1.00492">
        <ele>102.52</ele>
        <time>2021-08-02T16:43:21Z</time>
      </trkpt>
      <trkpt lat="47.09553" lon="-1.00492">
        <ele>102.04</ele>
        <time>2021-08-02T16:45:13Z</time>
      </trkpt>
    </trkseg>
  </trk>
</gpx>